createdAt,value
2022-12-17T00:02:28.927Z,32.04
2022-12-17T00:05:14.303Z,32.26
2022-12-17T00:07:59.624Z,32.02
2022-12-17T00:10:44.793Z,32.02
2022-12-17T00:13:38.119Z,32.07
2022-12-17T00:16:24.444Z,32.03
2022-12-17T00:19:09.555Z,31.97
2022-12-17T00:21:55.003Z,32.00
2022-12-17T00:24:42.436Z,32.13
2022-12-17T00:27:27.682Z,32.08
2022-12-17T00:30:12.687Z,32.19
2022-12-17T00:32:57.939Z,32.15
2022-12-17T00:35:43.147Z,32.17
2022-12-17T00:38:37.071Z,32.52
2022-12-17T00:41:22.979Z,32.96
2022-12-17T00:44:08.133Z,33.51
2022-12-17T00:46:54.305Z,34.14
2022-12-17T00:49:41.302Z,34.71
2022-12-17T00:52:26.616Z,35.49
2022-12-17T00:55:11.859Z,36.12
2022-12-17T00:57:57.046Z,36.56
2022-12-17T01:00:42.356Z,36.75
2022-12-17T01:03:30.245Z,37.01
2022-12-17T01:06:19.342Z,37.21
2022-12-17T01:09:04.484Z,37.49
2022-12-17T01:11:49.774Z,37.46
2022-12-17T01:14:34.981Z,37.79
2022-12-17T01:17:20.899Z,38.04
2022-12-17T01:20:07.805Z,38.12
2022-12-17T01:22:53.231Z,38.08
2022-12-17T01:25:41.679Z,38.23
2022-12-17T01:28:27.123Z,38.38
2022-12-17T01:31:15.007Z,38.32
2022-12-17T01:34:00.691Z,38.35
2022-12-17T01:36:46.082Z,38.38
2022-12-17T01:39:31.247Z,38.25
2022-12-17T01:42:16.611Z,38.25
2022-12-17T01:45:11.130Z,38.21
2022-12-17T01:48:07.784Z,38.40
2022-12-17T01:51:02.030Z,38.34
2022-12-17T01:54:01.543Z,38.14
2022-12-17T01:56:47.211Z,38.29
2022-12-17T01:59:33.046Z,38.20
2022-12-17T02:02:18.512Z,38.17
2022-12-17T02:07:47.450Z,38.03
2022-12-17T02:10:53.291Z,37.92
2022-12-17T02:13:50.691Z,37.92
2022-12-17T02:16:39.082Z,38.03
2022-12-17T02:19:56.421Z,38.01
2022-12-17T02:22:58.968Z,37.94
2022-12-17T02:26:04.952Z,37.89
2022-12-17T02:28:52.998Z,37.93
2022-12-17T02:31:39.406Z,38.19
2022-12-17T02:34:28.455Z,38.29
2022-12-17T02:37:13.816Z,38.30
2022-12-17T02:39:59.508Z,38.28
2022-12-17T02:42:46.193Z,38.10
2022-12-17T02:45:32.687Z,38.13
2022-12-17T02:48:19.890Z,38.34
2022-12-17T02:51:05.777Z,38.38
2022-12-17T02:53:52.232Z,38.32
2022-12-17T02:56:37.515Z,38.33
2022-12-17T02:59:22.702Z,38.29
2022-12-17T03:02:08.509Z,38.01
2022-12-17T03:04:53.906Z,38.10
2022-12-17T03:07:39.161Z,38.46
2022-12-17T03:10:24.770Z,38.41
2022-12-17T03:13:10.164Z,39.22
2022-12-17T03:15:55.273Z,40.32
2022-12-17T03:18:40.647Z,41.68
2022-12-17T03:21:42.619Z,43.07
2022-12-17T03:24:27.500Z,44.02
2022-12-17T03:27:12.363Z,46.40
2022-12-17T03:29:57.589Z,47.75
2022-12-17T03:32:42.731Z,47.17
2022-12-17T03:35:27.882Z,45.82
2022-12-17T03:38:13.044Z,44.48
2022-12-17T03:40:58.233Z,43.58
2022-12-17T03:43:43.175Z,42.74
2022-12-17T03:46:28.609Z,41.90
2022-12-17T03:49:13.765Z,41.19
2022-12-17T03:51:58.871Z,40.75
2022-12-17T03:54:44.027Z,40.37
2022-12-17T03:57:28.979Z,39.84
2022-12-17T04:00:13.999Z,39.48
2022-12-17T04:02:59.296Z,39.56
2022-12-17T04:05:44.479Z,39.57
2022-12-17T04:08:29.570Z,39.43
2022-12-17T04:11:14.733Z,39.29
2022-12-17T04:13:59.939Z,39.09
2022-12-17T04:16:45.123Z,38.73
2022-12-17T04:19:30.426Z,38.65
2022-12-17T04:22:15.611Z,38.70
2022-12-17T04:25:01.030Z,38.48
2022-12-17T04:27:45.875Z,38.40
2022-12-17T04:30:31.193Z,38.42
2022-12-17T04:33:16.282Z,38.42
2022-12-17T04:36:01.516Z,38.48
2022-12-17T04:38:46.753Z,38.31
2022-12-17T04:41:31.891Z,38.09
2022-12-17T04:44:17.013Z,37.85
2022-12-17T04:47:02.177Z,37.74
2022-12-17T04:49:47.466Z,37.64
2022-12-17T04:52:32.533Z,37.41
2022-12-17T04:55:17.813Z,37.30
2022-12-17T04:58:03.233Z,37.29
2022-12-17T05:00:48.426Z,37.20
2022-12-17T05:03:34.850Z,37.05
2022-12-17T05:06:20.341Z,36.97
2022-12-17T05:09:05.535Z,36.80
2022-12-17T05:11:51.495Z,36.64
2022-12-17T05:14:36.704Z,36.68
2022-12-17T05:17:21.990Z,36.53
2022-12-17T05:20:07.177Z,36.31
2022-12-17T05:22:52.473Z,36.44
2022-12-17T05:25:37.655Z,36.31
2022-12-17T05:28:22.648Z,36.17
2022-12-17T05:31:12.738Z,36.14
2022-12-17T05:33:58.707Z,36.17
2022-12-17T05:36:44.439Z,36.18
2022-12-17T05:39:29.996Z,36.43
2022-12-17T05:44:43.998Z,37.67
2022-12-17T05:47:29.196Z,38.28
2022-12-17T05:50:14.500Z,38.54
2022-12-17T05:52:59.605Z,38.65
2022-12-17T05:56:04.661Z,38.72
2022-12-17T05:58:49.829Z,39.13
2022-12-17T06:01:35.172Z,39.41
2022-12-17T06:04:20.753Z,39.66
2022-12-17T06:07:06.042Z,40.27
2022-12-17T06:09:51.167Z,40.79
2022-12-17T06:12:46.798Z,40.71
2022-12-17T06:15:32.217Z,40.36
2022-12-17T06:18:17.650Z,39.92
2022-12-17T06:21:03.274Z,39.95
2022-12-17T06:23:48.849Z,40.16
2022-12-17T06:26:44.468Z,40.05
2022-12-17T06:29:29.587Z,39.81
2022-12-17T06:32:14.722Z,39.41
2022-12-17T06:35:00.361Z,39.23
2022-12-17T06:37:48.180Z,39.45
2022-12-17T06:40:33.309Z,40.27
2022-12-17T06:43:18.495Z,40.19
2022-12-17T06:46:03.524Z,39.97
2022-12-17T06:48:48.757Z,39.69
2022-12-17T06:51:34.002Z,39.69
2022-12-17T06:54:19.194Z,39.60
2022-12-17T06:57:04.472Z,39.41
2022-12-17T06:59:49.767Z,39.23
2022-12-17T07:02:34.915Z,39.06
2022-12-17T07:05:20.411Z,38.81
2022-12-17T07:08:14.592Z,38.67
2022-12-17T07:10:59.839Z,38.49
2022-12-17T07:13:44.776Z,38.42
2022-12-17T07:16:30.478Z,38.23
2022-12-17T07:19:15.779Z,38.08
2022-12-17T07:22:00.921Z,37.97
2022-12-17T07:24:46.000Z,37.81
2022-12-17T07:27:31.091Z,37.61
2022-12-17T07:30:16.490Z,37.43
2022-12-17T07:33:01.762Z,37.39
2022-12-17T07:35:46.936Z,37.30
2022-12-17T07:38:32.260Z,37.36
2022-12-17T07:41:18.171Z,37.45
2022-12-17T07:44:03.417Z,37.39
2022-12-17T07:46:48.591Z,37.28
2022-12-17T07:49:33.626Z,37.23
2022-12-17T07:52:18.944Z,37.01
2022-12-17T07:55:04.007Z,37.03
2022-12-17T07:57:49.138Z,36.91
2022-12-17T08:00:34.330Z,37.07
2022-12-17T08:03:20.264Z,37.22
2022-12-17T08:06:25.347Z,37.09
2022-12-17T08:09:10.596Z,36.99
2022-12-17T08:11:55.720Z,37.00
2022-12-17T08:14:40.911Z,36.84
2022-12-17T08:17:26.636Z,36.72
2022-12-17T08:20:11.910Z,36.58
2022-12-17T08:22:57.559Z,36.49
2022-12-17T08:25:42.838Z,36.75
2022-12-17T08:28:49.521Z,37.05
2022-12-17T08:31:33.943Z,37.19
2022-12-17T08:34:19.199Z,37.56
2022-12-17T08:37:04.712Z,37.83
2022-12-17T08:39:49.927Z,38.02
2022-12-17T08:42:35.266Z,38.16
2022-12-17T08:45:20.596Z,38.24
2022-12-17T08:48:05.601Z,38.51
2022-12-17T08:50:50.798Z,38.53
2022-12-17T08:53:36.287Z,38.80
2022-12-17T08:56:22.008Z,39.05
2022-12-17T08:59:07.335Z,38.92
2022-12-17T09:01:52.757Z,38.85
2022-12-17T09:04:37.802Z,38.79
2022-12-17T09:07:23.092Z,39.08
2022-12-17T09:10:08.422Z,38.90
2022-12-17T09:12:53.675Z,38.79
2022-12-17T09:15:38.612Z,38.59
2022-12-17T09:18:23.678Z,38.47
2022-12-17T09:21:13.430Z,38.67
2022-12-17T09:23:58.998Z,38.60
2022-12-17T09:26:44.495Z,38.31
2022-12-17T09:29:29.844Z,38.08
2022-12-17T09:32:15.082Z,38.07
2022-12-17T09:35:00.365Z,38.00
2022-12-17T09:37:45.651Z,38.09
2022-12-17T09:40:41.744Z,37.98
2022-12-17T09:43:41.989Z,37.90
2022-12-17T09:46:44.972Z,37.93
2022-12-17T09:49:41.223Z,38.01
2022-12-17T09:52:42.834Z,38.45
2022-12-17T09:55:36.242Z,38.43
2022-12-17T09:58:22.622Z,38.32
2022-12-17T10:01:08.958Z,37.51
2022-12-17T10:03:54.702Z,37.24
2022-12-17T10:06:46.988Z,37.04
2022-12-17T10:09:35.393Z,36.71
2022-12-17T10:12:38.514Z,36.82
2022-12-17T10:15:25.828Z,36.77
2022-12-17T10:18:11.199Z,36.92
2022-12-17T10:21:15.430Z,36.78
2022-12-17T10:24:01.178Z,36.50
2022-12-17T10:26:51.789Z,36.32
2022-12-17T10:29:47.123Z,36.17
2022-12-17T10:32:32.879Z,36.13
2022-12-17T10:35:21.064Z,36.14
2022-12-17T10:38:07.475Z,36.25
2022-12-17T10:40:53.203Z,36.18
2022-12-17T10:43:45.982Z,36.12
2022-12-17T10:46:40.378Z,36.12
2022-12-17T10:49:42.868Z,35.83
2022-12-17T10:52:49.330Z,35.96
2022-12-17T10:55:46.299Z,35.95
2022-12-17T10:58:47.141Z,36.01
2022-12-17T11:02:01.502Z,36.03
2022-12-17T11:04:50.133Z,36.05
2022-12-17T11:07:40.213Z,36.24
2022-12-17T11:10:34.632Z,36.34
2022-12-17T11:13:58.989Z,36.51
2022-12-17T11:16:53.404Z,36.76
2022-12-17T11:20:04.328Z,36.81
2022-12-17T11:23:17.997Z,36.84
2022-12-17T11:26:19.611Z,37.11
2022-12-17T11:29:04.971Z,37.12
2022-12-17T11:31:58.197Z,37.32
2022-12-17T11:35:08.470Z,37.51
2022-12-17T11:38:40.376Z,37.55
2022-12-17T11:41:25.451Z,37.97
2022-12-17T11:44:13.693Z,38.27
2022-12-17T11:47:23.817Z,38.55
2022-12-17T11:50:40.401Z,39.07
2022-12-17T11:53:56.507Z,39.62
2022-12-17T11:56:51.690Z,39.29
2022-12-17T11:59:55.915Z,39.33
2022-12-17T12:02:45.116Z,39.25
2022-12-17T12:06:11.784Z,39.09
2022-12-17T12:09:35.928Z,38.98
2022-12-17T12:12:36.467Z,39.02
2022-12-17T12:15:28.383Z,39.11
2022-12-17T12:18:21.593Z,39.03
2022-12-17T12:21:28.314Z,39.02
2022-12-17T12:24:40.943Z,38.75
2022-12-17T12:27:57.735Z,38.72
2022-12-17T12:30:48.247Z,38.06
2022-12-17T12:33:59.345Z,37.96
2022-12-17T12:36:45.859Z,37.48
2022-12-17T12:39:36.152Z,35.49
2022-12-17T12:42:24.929Z,36.02
2022-12-17T12:45:33.736Z,35.12
2022-12-17T12:48:32.705Z,34.54
2022-12-17T12:51:35.828Z,35.13
2022-12-17T12:54:50.091Z,35.87
2022-12-17T12:57:52.199Z,35.90
2022-12-17T13:00:55.733Z,35.85
2022-12-17T13:03:50.265Z,35.68
2022-12-17T13:06:41.792Z,35.76
2022-12-17T13:09:23.502Z,35.54
2022-12-17T13:11:56.611Z,35.47
2022-12-17T13:14:29.261Z,35.47
2022-12-17T13:16:55.830Z,35.32
2022-12-17T13:19:31.485Z,35.20
2022-12-17T13:22:20.269Z,35.14
2022-12-17T13:24:57.279Z,35.16
2022-12-17T13:27:35.854Z,35.15
2022-12-17T13:30:17.733Z,34.81
2022-12-17T13:33:24.935Z,34.75
2022-12-17T13:35:54.281Z,34.85
2022-12-17T13:38:39.880Z,34.82
2022-12-17T13:41:13.898Z,34.78
2022-12-17T13:43:57.680Z,34.66
2022-12-17T13:46:24.267Z,34.58
2022-12-17T13:48:57.466Z,34.53
2022-12-17T13:51:27.097Z,34.55
2022-12-17T13:53:57.658Z,34.62
2022-12-17T13:56:27.690Z,34.52
2022-12-17T13:58:56.263Z,34.53
2022-12-17T14:01:23.435Z,34.50
2022-12-17T14:04:11.190Z,34.38
2022-12-17T14:06:38.739Z,34.39
2022-12-17T14:09:05.972Z,34.25
2022-12-17T14:11:52.187Z,34.49
2022-12-17T14:14:38.952Z,34.26
2022-12-17T14:17:06.171Z,34.09
2022-12-17T14:19:33.560Z,34.28
2022-12-17T14:22:01.458Z,34.26
2022-12-17T14:24:29.434Z,34.25
2022-12-17T14:27:00.033Z,34.07
2022-12-17T14:29:29.355Z,34.21
2022-12-17T14:32:01.979Z,34.07
2022-12-17T14:34:29.950Z,33.98
2022-12-17T14:37:00.694Z,34.02
2022-12-17T14:39:30.786Z,33.99
2022-12-17T14:42:25.180Z,33.85
2022-12-17T14:44:58.855Z,34.00
2022-12-17T14:47:27.129Z,34.01
2022-12-17T14:50:12.038Z,34.07
2022-12-17T14:52:47.452Z,34.02
2022-12-17T14:55:23.358Z,34.06
2022-12-17T14:57:51.244Z,33.96
2022-12-17T15:00:18.699Z,33.97
2022-12-17T15:05:01.715Z,33.91
2022-12-17T15:07:31.908Z,33.91
2022-12-17T15:10:10.580Z,33.99
2022-12-17T15:12:37.159Z,33.96
2022-12-17T15:15:03.954Z,33.96
2022-12-17T15:17:30.580Z,33.91
2022-12-17T15:19:57.075Z,33.91
2022-12-17T15:22:24.030Z,33.79
2022-12-17T15:24:50.626Z,33.92
2022-12-17T15:27:20.234Z,33.96
2022-12-17T15:29:46.784Z,33.96
2022-12-17T15:32:23.571Z,33.92
2022-12-17T15:34:50.627Z,34.01
2022-12-17T15:37:21.028Z,33.98
2022-12-17T15:39:51.319Z,34.01
2022-12-17T15:42:36.568Z,33.97
2022-12-17T15:45:03.371Z,34.02
2022-12-17T15:47:30.822Z,34.03
2022-12-17T15:49:57.384Z,33.99
2022-12-17T15:52:24.071Z,33.96
2022-12-17T15:54:50.655Z,34.01
2022-12-17T15:57:18.901Z,34.00
2022-12-17T15:59:45.752Z,34.00
2022-12-17T16:02:12.883Z,33.93
2022-12-17T16:04:40.844Z,34.03
2022-12-17T16:07:07.589Z,33.94
2022-12-17T16:09:35.005Z,34.00
2022-12-17T16:12:01.569Z,33.98
2022-12-17T16:14:29.153Z,34.08
2022-12-17T16:16:55.683Z,33.90
2022-12-17T16:19:22.315Z,34.07
2022-12-17T16:21:49.243Z,34.10
2022-12-17T16:24:15.933Z,34.71
2022-12-17T16:26:42.688Z,34.92
2022-12-17T16:29:09.497Z,35.15
2022-12-17T16:31:36.129Z,35.35
2022-12-17T16:34:08.036Z,35.48
2022-12-17T16:36:34.681Z,35.54
2022-12-17T16:39:01.231Z,35.43
2022-12-17T16:41:28.387Z,35.46
2022-12-17T16:43:55.017Z,35.56
2022-12-17T16:46:31.225Z,35.36
2022-12-17T16:49:06.048Z,35.56
2022-12-17T16:51:33.145Z,35.38
2022-12-17T16:53:59.751Z,35.41
2022-12-17T16:56:28.338Z,35.58
2022-12-17T16:58:55.602Z,35.38
2022-12-17T17:01:28.385Z,35.26
2022-12-17T17:03:56.354Z,35.44
2022-12-17T17:06:23.407Z,35.39
2022-12-17T17:08:50.394Z,35.35
2022-12-17T17:11:19.308Z,35.44
2022-12-17T17:13:45.876Z,35.38
2022-12-17T17:16:12.562Z,35.53
2022-12-17T17:18:39.841Z,35.54
2022-12-17T17:21:18.787Z,35.49
2022-12-17T17:23:51.127Z,35.43
2022-12-17T17:26:17.854Z,35.41
2022-12-17T17:28:47.219Z,35.35
2022-12-17T17:31:15.400Z,35.29
2022-12-17T17:33:44.784Z,35.40
2022-12-17T17:36:25.960Z,35.24
2022-12-17T17:38:55.882Z,35.24
2022-12-17T17:41:24.874Z,35.26
2022-12-17T17:43:56.373Z,35.19
2022-12-17T17:46:23.182Z,35.22
2022-12-17T17:48:56.666Z,35.17
2022-12-17T17:53:49.572Z,35.36
2022-12-17T17:56:30.729Z,35.37
2022-12-17T17:59:12.091Z,35.51
2022-12-17T18:01:42.291Z,35.52
2022-12-17T18:04:13.152Z,35.57
2022-12-17T18:06:57.544Z,35.55
2022-12-17T18:09:29.613Z,35.64
2022-12-17T18:11:56.167Z,35.78
2022-12-17T18:14:22.747Z,35.90
2022-12-17T18:16:49.291Z,35.86
2022-12-17T18:19:21.874Z,35.84
2022-12-17T18:21:48.809Z,35.78
2022-12-17T18:24:18.452Z,35.55
2022-12-17T18:26:46.897Z,35.56
2022-12-17T18:31:47.109Z,35.32
2022-12-17T18:34:19.506Z,35.23
2022-12-17T18:36:46.487Z,35.00
2022-12-17T18:39:21.589Z,34.87
2022-12-17T18:42:07.968Z,34.84
2022-12-17T18:44:37.947Z,34.55
2022-12-17T18:47:07.885Z,34.71
2022-12-17T18:49:34.991Z,34.59
2022-12-17T18:52:01.826Z,34.42
2022-12-17T18:54:30.362Z,34.22
2022-12-17T18:57:01.949Z,33.99
2022-12-17T18:59:30.550Z,33.77
2022-12-17T19:01:58.624Z,33.45
2022-12-17T19:04:26.403Z,33.59
2022-12-17T19:06:53.661Z,33.38
2022-12-17T19:09:29.017Z,33.30
2022-12-17T19:11:56.582Z,33.33
2022-12-17T19:14:24.093Z,33.22
2022-12-17T19:16:52.688Z,33.31
2022-12-17T19:19:19.995Z,33.33
2022-12-17T19:21:46.693Z,33.34
2022-12-17T19:24:16.123Z,33.40
2022-12-17T19:26:44.110Z,33.47
2022-12-17T19:29:12.329Z,33.52
2022-12-17T19:31:39.663Z,33.69
2022-12-17T19:34:10.980Z,33.63
2022-12-17T19:36:38.747Z,33.62
2022-12-17T19:39:08.717Z,33.79
2022-12-17T19:41:35.679Z,33.54
2022-12-17T19:44:05.583Z,33.66
2022-12-17T19:46:35.110Z,33.67
2022-12-17T19:49:02.490Z,33.68
2022-12-17T19:51:30.752Z,33.75
2022-12-17T19:54:00.704Z,33.75
2022-12-17T19:56:33.665Z,33.63
2022-12-17T19:59:03.270Z,33.64
2022-12-17T20:01:32.497Z,33.61
2022-12-17T20:03:59.957Z,33.62
2022-12-17T20:06:29.773Z,33.95
2022-12-17T20:08:57.931Z,34.07
2022-12-17T20:11:34.051Z,34.32
2022-12-17T20:14:26.603Z,34.18
2022-12-17T20:17:00.161Z,34.20
2022-12-17T20:19:34.781Z,34.13
2022-12-17T20:22:07.719Z,34.14
2022-12-17T20:24:37.521Z,34.07
2022-12-17T20:27:04.369Z,34.12
2022-12-17T20:29:31.145Z,33.97
2022-12-17T20:34:27.260Z,34.02
2022-12-17T20:36:54.760Z,34.13
2022-12-17T20:39:26.668Z,34.01
2022-12-17T20:41:54.033Z,34.06
2022-12-17T20:44:20.648Z,33.96
2022-12-17T20:46:47.812Z,33.96
2022-12-17T20:49:14.721Z,34.05
2022-12-17T20:51:42.058Z,33.97
2022-12-17T20:54:10.289Z,34.03
2022-12-17T20:56:38.657Z,33.84
2022-12-17T20:59:07.548Z,33.98
2022-12-17T21:01:36.818Z,34.06
2022-12-17T21:04:04.489Z,34.10
2022-12-17T21:06:36.977Z,34.09
2022-12-17T21:09:04.898Z,34.03
2022-12-17T21:11:34.680Z,34.07
2022-12-17T21:14:07.225Z,34.18
2022-12-17T21:16:34.767Z,34.07
2022-12-17T21:19:02.460Z,34.19
2022-12-17T21:21:32.787Z,34.11
2022-12-17T21:24:00.886Z,34.36
2022-12-17T21:26:32.720Z,34.63
2022-12-17T21:29:00.649Z,34.72
2022-12-17T21:31:38.267Z,34.84
2022-12-17T21:34:07.263Z,34.87
2022-12-17T21:36:37.215Z,34.93
2022-12-17T21:39:09.095Z,35.11
2022-12-17T21:42:01.905Z,35.60
2022-12-17T21:44:32.222Z,35.57
2022-12-17T21:46:58.890Z,35.54
2022-12-17T21:49:25.670Z,35.57
2022-12-17T21:51:52.632Z,35.60
2022-12-17T21:54:20.130Z,35.47
2022-12-17T21:56:50.045Z,35.47
2022-12-17T21:59:17.007Z,35.38
2022-12-17T22:01:43.953Z,35.31
2022-12-17T22:04:11.143Z,35.38
2022-12-17T22:06:41.190Z,35.36
2022-12-17T22:09:10.429Z,35.29
2022-12-17T22:11:44.976Z,35.24
2022-12-17T22:14:18.937Z,35.14
2022-12-17T22:16:49.268Z,35.24
2022-12-17T22:19:22.995Z,35.29
2022-12-17T22:21:57.673Z,35.20
2022-12-17T22:24:25.386Z,35.28
2022-12-17T22:26:59.970Z,35.20
2022-12-17T22:29:45.980Z,35.35
2022-12-17T22:32:31.276Z,35.09
2022-12-17T22:37:28.156Z,35.08
2022-12-17T22:41:12.593Z,35.14
2022-12-17T22:44:32.173Z,34.98
2022-12-17T22:44:41.009Z,35.00
2022-12-17T22:46:16.670Z,34.84
2022-12-17T22:48:43.302Z,34.87
2022-12-17T22:51:30.201Z,35.01
2022-12-17T22:54:00.924Z,34.92
2022-12-17T22:57:02.908Z,34.84
2022-12-17T22:59:18.656Z,34.67
2022-12-17T23:01:45.483Z,34.79
2022-12-17T23:04:14.727Z,34.78
2022-12-17T23:06:45.063Z,34.69
2022-12-17T23:09:13.577Z,34.67
2022-12-17T23:11:40.289Z,34.84
2022-12-17T23:14:11.577Z,34.54
2022-12-17T23:16:39.617Z,34.54
2022-12-17T23:19:07.117Z,34.45
2022-12-17T23:21:35.084Z,34.40
2022-12-17T23:24:01.879Z,34.74
2022-12-17T23:26:31.315Z,34.36
2022-12-17T23:29:02.202Z,34.32
2022-12-17T23:31:32.625Z,34.31
2022-12-17T23:33:59.733Z,34.27
2022-12-17T23:36:27.727Z,34.23
2022-12-17T23:38:56.425Z,34.21
2022-12-17T23:41:29.027Z,34.09
2022-12-17T23:43:57.072Z,34.09
2022-12-17T23:46:25.418Z,34.17
2022-12-17T23:48:52.505Z,34.07
2022-12-17T23:51:21.311Z,33.94
2022-12-17T23:53:47.960Z,33.95
2022-12-17T23:56:20.518Z,34.01
2022-12-17T23:58:47.970Z,34.13
